createdAt,value
2019-05-23T00:02:32.497Z,98.90
2019-05-23T00:05:07.765Z,98.70
2019-05-23T00:07:38.175Z,98.50
2019-05-23T00:10:10.130Z,98.50
2019-05-23T00:12:44.478Z,98.30
2019-05-23T00:15:36.522Z,98.20
2019-05-23T00:18:06.947Z,98.40
2019-05-23T00:20:38.212Z,98.40
2019-05-23T00:23:08.746Z,98.30
2019-05-23T00:25:40.238Z,98.50
2019-05-23T00:28:10.823Z,98.90
2019-05-23T00:30:52.453Z,98.90
2019-05-23T00:33:27.710Z,98.70
2019-05-23T00:35:57.493Z,99.00
2019-05-23T00:38:27.996Z,98.90
2019-05-23T00:40:58.170Z,98.70
2019-05-23T00:43:29.888Z,98.50
2019-05-23T00:46:01.021Z,98.30
2019-05-23T00:48:32.102Z,98.50
2019-05-23T00:51:05.298Z,98.80
2019-05-23T00:53:37.770Z,99.00
2019-05-23T00:56:09.208Z,99.10
2019-05-23T00:58:39.403Z,98.80
2019-05-23T01:01:11.529Z,99.20
2019-05-23T01:03:42.173Z,99.30
2019-05-23T01:06:14.184Z,99.60
2019-05-23T01:08:46.729Z,99.60
2019-05-23T01:11:17.485Z,99.60
2019-05-23T01:13:48.222Z,99.40
2019-05-23T01:16:18.036Z,99.90
2019-05-23T01:18:47.995Z,99.40
2019-05-23T01:21:19.565Z,99.50
2019-05-23T01:23:54.996Z,99.80
2019-05-23T01:26:26.154Z,99.80
2019-05-23T01:28:56.546Z,99.50
2019-05-23T01:31:31.821Z,99.50
2019-05-23T01:34:04.488Z,99.50
2019-05-23T01:36:35.853Z,99.30
2019-05-23T01:39:09.917Z,99.50
2019-05-23T01:41:41.386Z,99.60
2019-05-23T01:44:14.143Z,99.60
2019-05-23T01:46:44.889Z,99.80
2019-05-23T01:49:15.538Z,99.90
2019-05-23T01:51:46.068Z,99.90
2019-05-23T01:54:16.625Z,99.90
2019-05-23T01:56:47.954Z,99.90
2019-05-23T01:59:19.557Z,99.90
2019-05-23T02:01:49.734Z,99.90
2019-05-23T02:04:19.540Z,99.90
2019-05-23T02:06:50.833Z,99.90
2019-05-23T02:09:21.625Z,99.50
2019-05-23T02:11:52.869Z,99.50
2019-05-23T02:14:24.978Z,99.10
2019-05-23T02:16:56.549Z,99.00
2019-05-23T02:19:28.524Z,98.80
2019-05-23T02:21:58.980Z,98.70
2019-05-23T02:24:31.489Z,98.70
2019-05-23T02:27:02.083Z,98.80
2019-05-23T02:29:32.736Z,98.90
2019-05-23T02:32:06.460Z,99.00
2019-05-23T02:34:38.133Z,99.40
2019-05-23T02:37:16.629Z,99.60
2019-05-23T02:39:51.248Z,99.90
2019-05-23T02:42:23.204Z,99.90
2019-05-23T02:44:56.786Z,99.90
2019-05-23T02:47:39.041Z,99.90
2019-05-23T02:50:13.580Z,99.90
2019-05-23T02:52:50.949Z,99.90
2019-05-23T02:55:27.564Z,99.90
2019-05-23T02:58:00.939Z,99.90
2019-05-23T03:00:54.911Z,99.90
2019-05-23T03:03:28.553Z,99.90
2019-05-23T03:06:02.941Z,99.90
2019-05-23T03:08:36.082Z,99.90
2019-05-23T03:11:28.433Z,99.90
2019-05-23T03:14:00.622Z,99.90
2019-05-23T03:16:32.766Z,99.90
2019-05-23T03:19:07.223Z,99.90
2019-05-23T03:21:39.009Z,99.90
2019-05-23T03:24:09.477Z,99.90
2019-05-23T03:26:51.828Z,99.90
2019-05-23T03:29:22.900Z,99.90
2019-05-23T03:32:10.964Z,99.90
2019-05-23T03:34:42.597Z,99.90
2019-05-23T03:37:13.459Z,99.90
2019-05-23T03:39:44.175Z,99.90
2019-05-23T03:42:15.273Z,99.90
2019-05-23T03:44:48.051Z,99.90
2019-05-23T03:47:20.916Z,99.90
2019-05-23T03:49:52.859Z,99.90
2019-05-23T03:52:23.844Z,99.90
2019-05-23T03:54:56.004Z,99.90
2019-05-23T03:57:26.456Z,99.90
2019-05-23T03:59:56.928Z,99.90
2019-05-23T04:02:26.831Z,99.90
2019-05-23T04:04:57.433Z,99.90
2019-05-23T04:07:28.065Z,99.90
2019-05-23T04:09:59.064Z,99.90
2019-05-23T04:12:29.141Z,99.90
2019-05-23T04:14:59.012Z,99.90
2019-05-23T04:17:28.846Z,99.90
2019-05-23T04:20:00.239Z,99.90
2019-05-23T04:22:30.938Z,99.90
2019-05-23T04:25:02.151Z,99.90
2019-05-23T04:27:32.291Z,99.90
2019-05-23T04:30:03.896Z,99.90
2019-05-23T04:32:35.859Z,99.90
2019-05-23T04:35:08.036Z,99.90
2019-05-23T04:37:39.072Z,99.90
2019-05-23T04:40:11.465Z,99.90
2019-05-23T04:42:41.457Z,99.90
2019-05-23T04:45:11.934Z,99.90
2019-05-23T04:47:42.863Z,99.90
2019-05-23T04:50:14.716Z,99.90
2019-05-23T04:52:45.215Z,99.90
2019-05-23T04:55:15.545Z,99.90
2019-05-23T04:57:47.015Z,99.90
2019-05-23T05:00:19.498Z,99.90
2019-05-23T05:02:50.862Z,99.90
2019-05-23T05:05:21.869Z,99.90
2019-05-23T05:07:53.253Z,99.90
2019-05-23T05:10:23.806Z,99.90
2019-05-23T05:12:56.000Z,99.90
2019-05-23T05:15:26.443Z,99.90
2019-05-23T05:17:56.355Z,99.90
2019-05-23T05:20:26.435Z,99.90
2019-05-23T05:22:56.390Z,99.90
2019-05-23T05:25:26.279Z,99.90
2019-05-23T05:27:56.680Z,99.90
2019-05-23T05:30:27.091Z,99.90
2019-05-23T05:32:58.128Z,99.90
2019-05-23T05:35:30.412Z,99.90
2019-05-23T05:38:00.781Z,99.90
2019-05-23T05:40:31.597Z,99.90
2019-05-23T05:43:05.514Z,99.90
2019-05-23T05:45:35.710Z,99.90
2019-05-23T05:48:05.805Z,99.90
2019-05-23T05:50:36.616Z,99.90
2019-05-23T05:53:06.940Z,99.90
2019-05-23T05:55:36.769Z,99.90
2019-05-23T05:58:06.946Z,99.90
2019-05-23T06:00:39.882Z,99.90
2019-05-23T06:03:10.330Z,99.90
2019-05-23T06:05:59.474Z,99.90
2019-05-23T06:08:33.626Z,99.90
2019-05-23T06:11:03.808Z,99.80
2019-05-23T06:13:36.233Z,99.50
2019-05-23T06:16:07.114Z,99.70
2019-05-23T06:18:38.076Z,99.90
2019-05-23T06:21:07.868Z,99.40
2019-05-23T06:23:38.055Z,99.00
2019-05-23T06:26:09.055Z,98.70
2019-05-23T06:28:40.865Z,98.70
2019-05-23T06:31:12.515Z,98.50
2019-05-23T06:33:44.509Z,98.20
2019-05-23T06:36:16.329Z,98.10
2019-05-23T06:38:46.283Z,98.40
2019-05-23T06:41:16.922Z,98.00
2019-05-23T06:43:47.077Z,98.10
2019-05-23T06:46:18.082Z,97.70
2019-05-23T06:48:50.263Z,97.80
2019-05-23T06:51:21.491Z,98.10
2019-05-23T06:53:52.649Z,98.00
2019-05-23T06:56:24.218Z,97.70
2019-05-23T06:58:54.052Z,97.60
2019-05-23T07:01:25.021Z,97.80
2019-05-23T07:03:56.272Z,98.20
2019-05-23T07:06:26.175Z,97.60
2019-05-23T07:08:55.997Z,97.60
2019-05-23T07:11:29.251Z,97.20
2019-05-23T07:13:59.160Z,96.70
2019-05-23T07:16:30.048Z,97.00
2019-05-23T07:19:00.662Z,96.30
2019-05-23T07:21:30.917Z,96.20
2019-05-23T07:24:02.030Z,96.30
2019-05-23T07:26:32.948Z,96.20
2019-05-23T07:29:04.150Z,96.20
2019-05-23T07:31:35.675Z,97.00
2019-05-23T07:34:06.036Z,96.70
2019-05-23T07:36:36.770Z,96.60
2019-05-23T07:39:11.740Z,96.80
2019-05-23T07:41:41.669Z,96.60
2019-05-23T07:44:13.408Z,96.60
2019-05-23T07:46:43.274Z,96.40
2019-05-23T07:49:14.766Z,95.90
2019-05-23T07:51:45.120Z,95.70
2019-05-23T07:54:24.016Z,95.10
2019-05-23T07:56:54.872Z,95.30
2019-05-23T07:59:24.955Z,95.60
2019-05-23T08:01:59.675Z,95.90
2019-05-23T08:04:30.449Z,95.50
2019-05-23T08:07:01.250Z,95.70
2019-05-23T08:09:32.158Z,95.70
2019-05-23T08:12:04.909Z,96.00
2019-05-23T08:14:34.769Z,95.90
2019-05-23T08:17:05.266Z,95.70
2019-05-23T08:19:48.981Z,95.40
2019-05-23T08:22:07.150Z,95.70
2019-05-23T08:24:36.924Z,95.60
2019-05-23T08:27:08.481Z,94.50
2019-05-23T08:29:38.874Z,94.20
2019-05-23T08:32:09.641Z,94.10
2019-05-23T08:34:42.186Z,94.60
2019-05-23T08:37:12.790Z,94.20
2019-05-23T08:39:44.533Z,94.10
2019-05-23T08:42:17.199Z,94.50
2019-05-23T08:44:47.834Z,93.80
2019-05-23T08:47:18.835Z,94.00
2019-05-23T08:49:49.949Z,94.10
2019-05-23T08:52:19.896Z,93.20
2019-05-23T08:54:53.540Z,93.10
2019-05-23T08:57:25.557Z,93.10
2019-05-23T08:59:56.254Z,92.40
2019-05-23T09:02:27.564Z,92.60
2019-05-23T09:05:05.384Z,92.50
2019-05-23T09:07:30.867Z,91.50
2019-05-23T09:10:02.061Z,90.70
2019-05-23T09:12:33.317Z,90.50
2019-05-23T09:15:03.132Z,90.30
2019-05-23T09:17:51.355Z,91.20
2019-05-23T09:20:10.081Z,91.70
2019-05-23T09:22:40.518Z,92.20
2019-05-23T09:25:12.924Z,92.50
2019-05-23T09:27:43.743Z,92.70
2019-05-23T09:30:14.620Z,92.50
2019-05-23T09:32:44.719Z,92.40
2019-05-23T09:35:20.889Z,92.10
2019-05-23T09:37:48.687Z,92.50
2019-05-23T09:40:19.749Z,91.90
2019-05-23T09:42:49.655Z,92.00
2019-05-23T09:45:20.019Z,92.20
2019-05-23T09:47:51.222Z,91.90
2019-05-23T09:50:24.206Z,91.60
2019-05-23T09:52:55.127Z,92.00
2019-05-23T09:55:26.361Z,91.10
2019-05-23T09:57:56.920Z,90.20
2019-05-23T10:00:28.326Z,90.80
2019-05-23T10:02:59.677Z,90.50
2019-05-23T10:05:41.936Z,90.30
2019-05-23T10:08:02.021Z,89.50
2019-05-23T10:10:35.289Z,89.40
2019-05-23T10:13:05.476Z,90.30
2019-05-23T10:15:39.048Z,87.20
2019-05-23T10:18:19.555Z,85.50
2019-05-23T10:20:49.339Z,85.30
2019-05-23T10:23:20.885Z,83.60
2019-05-23T10:25:53.826Z,84.50
2019-05-23T10:28:24.299Z,84.30
2019-05-23T10:30:54.158Z,82.60
2019-05-23T10:33:24.091Z,83.50
2019-05-23T10:36:00.259Z,81.80
2019-05-23T10:38:29.581Z,83.10
2019-05-23T10:40:59.895Z,82.20
2019-05-23T10:43:32.444Z,81.90
2019-05-23T10:46:04.061Z,78.70
2019-05-23T10:48:34.626Z,76.40
2019-05-23T10:51:06.385Z,76.70
2019-05-23T10:53:39.296Z,74.70
2019-05-23T10:56:09.873Z,68.70
2019-05-23T10:58:42.342Z,66.70
2019-05-23T11:01:14.573Z,61.30
2019-05-23T11:03:45.834Z,56.60
2019-05-23T11:06:17.377Z,56.10
2019-05-23T11:08:47.640Z,52.80
2019-05-23T11:11:18.153Z,51.00
2019-05-23T11:13:48.069Z,52.10
2019-05-23T11:16:18.020Z,54.40
2019-05-23T11:18:47.827Z,55.50
2019-05-23T11:21:18.286Z,57.50
2019-05-23T11:23:50.406Z,58.00
2019-05-23T11:26:20.953Z,61.60
2019-05-23T11:28:51.049Z,65.50
2019-05-23T11:31:22.561Z,69.60
2019-05-23T11:33:53.484Z,69.90
2019-05-23T11:36:34.923Z,70.80
2019-05-23T11:38:55.170Z,69.90
2019-05-23T11:41:26.584Z,70.70
2019-05-23T11:43:57.392Z,71.80
2019-05-23T11:46:30.396Z,67.10
2019-05-23T11:49:00.950Z,57.80
2019-05-23T11:51:33.635Z,50.80
2019-05-23T11:54:08.323Z,47.80
2019-05-23T11:56:37.137Z,44.00
2019-05-23T11:59:08.615Z,44.00
2019-05-23T12:01:40.191Z,41.40
2019-05-23T12:04:12.809Z,40.70
2019-05-23T12:06:55.112Z,41.10
2019-05-23T12:09:17.152Z,40.10
2019-05-23T12:11:47.611Z,38.10
2019-05-23T12:14:17.894Z,37.60
2019-05-23T12:16:48.620Z,39.40
2019-05-23T12:19:19.373Z,42.10
2019-05-23T12:21:49.794Z,43.80
2019-05-23T12:24:20.636Z,45.40
2019-05-23T12:26:51.825Z,48.60
2019-05-23T12:29:24.697Z,50.90
2019-05-23T12:31:55.609Z,51.90
2019-05-23T12:34:27.016Z,52.70
2019-05-23T12:37:16.985Z,54.00
2019-05-23T12:39:31.031Z,54.20
2019-05-23T12:42:00.970Z,52.50
2019-05-23T12:44:30.812Z,53.60
2019-05-23T12:47:02.146Z,53.10
2019-05-23T12:49:34.811Z,52.20
2019-05-23T12:52:06.856Z,54.60
2019-05-23T12:54:36.717Z,50.20
2019-05-23T12:57:07.913Z,49.10
2019-05-23T12:59:38.379Z,48.30
2019-05-23T13:02:09.996Z,48.00
2019-05-23T13:04:40.456Z,49.10
2019-05-23T13:07:10.915Z,47.90
2019-05-23T13:09:40.657Z,53.50
2019-05-23T13:12:10.537Z,49.70
2019-05-23T13:14:40.366Z,48.90
2019-05-23T13:17:10.498Z,47.40
2019-05-23T13:19:40.294Z,47.50
2019-05-23T13:22:10.922Z,46.70
2019-05-23T13:24:52.226Z,49.10
2019-05-23T13:27:12.897Z,47.10
2019-05-23T13:29:44.883Z,50.00
2019-05-23T13:32:15.989Z,51.60
2019-05-23T13:34:47.127Z,50.50
2019-05-23T13:37:18.074Z,51.40
2019-05-23T13:39:47.862Z,51.90
2019-05-23T13:42:18.299Z,54.10
2019-05-23T13:44:50.297Z,52.20
2019-05-23T13:47:21.075Z,52.20
2019-05-23T13:49:50.851Z,50.20
2019-05-23T13:52:20.704Z,50.10
2019-05-23T13:54:51.116Z,49.20
2019-05-23T13:57:22.340Z,50.30
2019-05-23T13:59:55.313Z,48.60
2019-05-23T14:02:26.388Z,49.10
2019-05-23T14:04:57.967Z,49.50
2019-05-23T14:07:30.298Z,50.80
2019-05-23T14:10:01.258Z,51.90
2019-05-23T14:12:32.709Z,50.70
2019-05-23T14:15:04.880Z,51.20
2019-05-23T14:17:40.425Z,53.00
2019-05-23T14:20:10.465Z,53.20
2019-05-23T14:22:42.069Z,53.00
2019-05-23T14:25:15.721Z,50.70
2019-05-23T14:27:47.354Z,53.10
2019-05-23T14:30:25.824Z,51.10
2019-05-23T14:33:07.827Z,49.40
2019-05-23T14:35:40.495Z,52.80
2019-05-23T14:38:29.116Z,53.20
2019-05-23T14:40:45.526Z,52.40
2019-05-23T14:43:25.949Z,54.20
2019-05-23T14:46:16.758Z,54.80
2019-05-23T14:48:49.583Z,52.80
2019-05-23T14:51:21.949Z,55.50
2019-05-23T14:54:11.412Z,54.20
2019-05-23T14:56:42.415Z,54.10
2019-05-23T14:59:13.011Z,53.10
2019-05-23T15:01:43.152Z,54.60
2019-05-23T15:04:15.553Z,53.00
2019-05-23T15:06:45.446Z,52.00
2019-05-23T15:09:16.335Z,52.10
2019-05-23T15:11:46.278Z,54.00
2019-05-23T15:14:17.701Z,54.60
2019-05-23T15:16:48.480Z,56.40
2019-05-23T15:19:38.793Z,56.00
2019-05-23T15:21:50.256Z,55.40
2019-05-23T15:24:21.920Z,55.70
2019-05-23T15:26:51.784Z,57.40
2019-05-23T15:29:22.341Z,56.50
2019-05-23T15:32:02.481Z,56.30
2019-05-23T15:34:25.286Z,56.40
2019-05-23T15:36:55.075Z,56.90
2019-05-23T15:39:27.032Z,57.20
2019-05-23T15:41:58.387Z,57.30
2019-05-23T15:44:29.882Z,55.20
2019-05-23T15:46:59.696Z,56.10
2019-05-23T15:49:30.715Z,53.70
2019-05-23T15:52:05.083Z,54.00
2019-05-23T15:54:38.098Z,54.90
2019-05-23T15:57:10.533Z,54.10
2019-05-23T15:59:43.518Z,55.50
2019-05-23T16:02:15.612Z,54.60
2019-05-23T16:04:45.796Z,55.80
2019-05-23T16:07:16.234Z,52.80
2019-05-23T16:09:46.180Z,53.10
2019-05-23T16:12:16.279Z,54.00
2019-05-23T16:14:46.563Z,53.60
2019-05-23T16:17:16.407Z,52.80
2019-05-23T16:19:46.193Z,52.90
2019-05-23T16:22:16.662Z,53.10
2019-05-23T16:24:47.055Z,53.00
2019-05-23T16:27:18.917Z,54.80
2019-05-23T16:29:49.102Z,52.60
2019-05-23T16:32:21.138Z,53.40
2019-05-23T16:34:50.935Z,53.20
2019-05-23T16:37:21.851Z,54.70
2019-05-23T16:39:52.389Z,56.60
2019-05-23T16:42:26.342Z,56.00
2019-05-23T16:44:57.106Z,57.30
2019-05-23T16:47:28.809Z,56.20
2019-05-23T16:49:59.686Z,56.40
2019-05-23T16:52:31.370Z,55.20
2019-05-23T16:55:05.591Z,56.80
2019-05-23T16:57:41.499Z,56.60
2019-05-23T17:00:13.359Z,57.70
2019-05-23T17:02:56.045Z,57.50
2019-05-23T17:05:33.569Z,58.90
2019-05-23T17:08:11.763Z,59.90
2019-05-23T17:10:49.220Z,58.80
2019-05-23T17:13:28.836Z,59.00
2019-05-23T17:16:04.095Z,58.30
2019-05-23T17:18:43.225Z,57.50
2019-05-23T17:21:19.100Z,58.00
2019-05-23T17:23:53.540Z,57.60
2019-05-23T17:26:29.232Z,56.30
2019-05-23T17:29:01.232Z,56.70
2019-05-23T17:31:35.450Z,57.40
2019-05-23T17:34:07.014Z,57.60
2019-05-23T17:36:38.066Z,58.40
2019-05-23T17:39:11.572Z,58.80
2019-05-23T17:41:41.517Z,58.40
2019-05-23T17:44:11.314Z,57.40
2019-05-23T17:46:42.165Z,57.80
2019-05-23T17:49:11.999Z,57.60
2019-05-23T17:51:44.823Z,58.60
2019-05-23T17:54:15.288Z,59.40
2019-05-23T17:56:45.908Z,59.40
2019-05-23T17:59:16.641Z,60.10
2019-05-23T18:01:47.373Z,61.50
2019-05-23T18:04:17.675Z,62.20
2019-05-23T18:06:47.475Z,63.20
2019-05-23T18:09:19.458Z,64.20
2019-05-23T18:11:51.100Z,64.50
2019-05-23T18:14:21.834Z,66.40
2019-05-23T18:16:54.054Z,67.20
2019-05-23T18:19:26.276Z,69.10
2019-05-23T18:21:57.530Z,70.20
2019-05-23T18:24:29.028Z,72.00
2019-05-23T18:27:01.225Z,73.00
2019-05-23T18:29:32.468Z,74.70
2019-05-23T18:32:05.346Z,75.10
2019-05-23T18:34:36.958Z,76.80
2019-05-23T18:37:09.796Z,78.00
2019-05-23T18:39:41.850Z,79.20
2019-05-23T18:42:13.171Z,79.90
2019-05-23T18:44:44.409Z,80.00
2019-05-23T18:47:15.956Z,79.90
2019-05-23T18:49:47.431Z,80.60
2019-05-23T18:52:18.123Z,80.70
2019-05-23T18:54:47.928Z,82.20
2019-05-23T18:57:20.528Z,83.10
2019-05-23T18:59:51.739Z,84.20
2019-05-23T19:02:22.604Z,84.60
2019-05-23T19:04:52.588Z,85.00
2019-05-23T19:07:22.399Z,85.40
2019-05-23T19:09:53.625Z,86.30
2019-05-23T19:12:24.588Z,86.70
2019-05-23T19:14:54.914Z,87.20
2019-05-23T19:17:24.794Z,87.40
2019-05-23T19:19:56.691Z,87.60
2019-05-23T19:22:27.846Z,87.80
2019-05-23T19:24:58.657Z,88.00
2019-05-23T19:27:31.789Z,87.60
2019-05-23T19:30:04.437Z,87.80
2019-05-23T19:32:37.943Z,88.40
2019-05-23T19:35:09.380Z,85.30
2019-05-23T19:37:41.670Z,85.00
2019-05-23T19:40:12.579Z,85.80
2019-05-23T19:42:44.153Z,85.30
2019-05-23T19:45:16.353Z,85.40
2019-05-23T19:47:47.907Z,85.70
2019-05-23T19:50:18.908Z,87.00
2019-05-23T19:52:50.465Z,87.60
2019-05-23T19:55:22.927Z,88.50
2019-05-23T19:57:55.607Z,89.30
2019-05-23T20:00:27.748Z,90.10
2019-05-23T20:02:59.196Z,90.70
2019-05-23T20:05:40.405Z,91.20
2019-05-23T20:08:11.678Z,91.50
2019-05-23T20:10:41.495Z,92.00
2019-05-23T20:13:12.975Z,92.20
2019-05-23T20:15:45.614Z,92.60
2019-05-23T20:18:15.335Z,93.20
2019-05-23T20:20:48.860Z,93.40
2019-05-23T20:23:19.649Z,93.80
2019-05-23T20:25:49.932Z,94.00
2019-05-23T20:28:19.774Z,93.80
2019-05-23T20:30:51.730Z,94.00
2019-05-23T20:33:22.242Z,94.00
2019-05-23T20:35:53.365Z,94.10
2019-05-23T20:38:24.737Z,94.20
2019-05-23T20:40:54.944Z,94.40
2019-05-23T20:43:28.436Z,94.70
2019-05-23T20:45:58.247Z,94.90
2019-05-23T20:48:28.631Z,95.20
2019-05-23T20:50:59.363Z,95.40
2019-05-23T20:53:30.325Z,95.40
2019-05-23T20:56:00.161Z,95.60
2019-05-23T20:58:31.576Z,96.00
2019-05-23T21:01:06.703Z,96.30
2019-05-23T21:03:38.342Z,96.50
2019-05-23T21:06:10.128Z,96.50
2019-05-23T21:08:40.017Z,96.80
2019-05-23T21:11:11.383Z,96.90
2019-05-23T21:13:42.556Z,96.90
2019-05-23T21:16:14.121Z,97.00
2019-05-23T21:18:43.901Z,96.80
2019-05-23T21:21:14.767Z,96.90
2019-05-23T21:23:44.791Z,97.00
2019-05-23T21:26:16.262Z,97.40
2019-05-23T21:28:47.280Z,97.20
2019-05-23T21:31:21.114Z,97.30
2019-05-23T21:33:52.311Z,97.30
2019-05-23T21:36:22.174Z,97.30
2019-05-23T21:38:53.614Z,97.40
2019-05-23T21:41:23.798Z,97.40
2019-05-23T21:43:56.460Z,97.70
2019-05-23T21:46:26.715Z,97.60
2019-05-23T21:48:56.913Z,97.70
2019-05-23T21:51:27.064Z,97.90
2019-05-23T21:53:58.411Z,97.70
2019-05-23T21:56:28.255Z,97.70
2019-05-23T21:58:59.306Z,97.70
2019-05-23T22:01:31.011Z,97.80
2019-05-23T22:04:06.550Z,97.70
2019-05-23T22:06:55.082Z,97.90
2019-05-23T22:09:22.906Z,97.90
2019-05-23T22:11:55.889Z,97.90
2019-05-23T22:14:27.291Z,97.80
2019-05-23T22:16:57.230Z,97.90
2019-05-23T22:19:28.924Z,97.90
2019-05-23T22:21:58.876Z,98.00
2019-05-23T22:24:29.963Z,98.20
2019-05-23T22:26:59.792Z,98.30
2019-05-23T22:29:31.182Z,98.40
2019-05-23T22:32:02.295Z,98.50
2019-05-23T22:34:34.009Z,98.70
2019-05-23T22:37:05.451Z,98.80
2019-05-23T22:39:37.317Z,98.90
2019-05-23T22:42:08.798Z,99.00
2019-05-23T22:44:38.600Z,99.00
2019-05-23T22:47:09.363Z,98.90
2019-05-23T22:49:39.323Z,99.00
2019-05-23T22:52:11.210Z,99.10
2019-05-23T22:54:41.774Z,99.20
2019-05-23T22:57:13.610Z,99.40
2019-05-23T22:59:43.489Z,99.60
2019-05-23T23:02:16.579Z,99.70
2019-05-23T23:04:48.961Z,99.90
2019-05-23T23:07:19.313Z,99.90
2019-05-23T23:09:49.332Z,99.90
2019-05-23T23:12:19.278Z,99.90
2019-05-23T23:14:50.891Z,99.90
2019-05-23T23:17:21.565Z,99.90
2019-05-23T23:19:51.401Z,99.90
2019-05-23T23:22:21.571Z,99.90
2019-05-23T23:24:51.557Z,99.90
2019-05-23T23:27:21.427Z,99.90
2019-05-23T23:29:51.545Z,99.90
2019-05-23T23:32:21.633Z,99.90
2019-05-23T23:34:53.273Z,99.90
2019-05-23T23:37:23.139Z,99.90
2019-05-23T23:39:54.478Z,99.90
2019-05-23T23:42:24.342Z,99.90
2019-05-23T23:45:13.653Z,99.90
2019-05-23T23:48:03.033Z,99.90
2019-05-23T23:50:50.713Z,99.90
2019-05-23T23:53:39.555Z,99.90
2019-05-23T23:56:28.763Z,99.90
2019-05-23T23:58:59.838Z,99.90
